Impacts TAF Board INFO
FOR SITUATIONAL AWARENESS. NOT TO BE USED FOR FLIGHT PLANNING PURPOSES.
IDs:

KATL - Atlanta/Hartsfield-J, GA, US

Issued at 0934 UTC 19 Jul 2018
Updated at 0949 UTC 19 Jul 2018
Potential Impact None Slight Moderate High
Time0852Z 19/10Z 19/11Z 19/12Z 19/13Z 19/14Z 19/15Z 19/16Z 19/17Z 19/18Z 19/19Z 19/20Z 19/21Z 19/22Z>>
Type OBS PRVL PRVL PRVL PRVL PRVL PRVL PRVL PRVL PRVL PRVL PRVL PRVL
  [TEMP]  
PRVL
  [TEMP]  
VIS 10 >6 >6 >6 >6 >6 >6 >6 >6 >6 >6 >6 >6
  [4]  
>6
  [4]  
CIG -- -- -- -- -- -- -- -- -- 40 40 40 40
  [35]  
40
  [35]  
Cover SCT SCT SCT SCT SCT SCT SCT SCT SCT BKN BKN BKN BKN
  [BKN]  
BKN
  [BKN]  
FltCat VFR VFR VFR VFR VFR VFR VFR VFR VFR VFR VFR VFR VFR
  [MVFR]  
VFR
  [MVFR]  
WX -- -- -- -- -- -- -- -- -- VCSH VCSH VCSH VCSH
  [TSRA]  
VCSH
  [TSRA]  
WDir 150 70 70 70 70 70 90 90 90 100 100 100 100
[VRB]
100
[VRB]
WSpd 4 5 5 5 5 5 6 6 6 7 7 7 7
  [10]  
7
  [10]  
WGst -- -- -- -- -- -- -- -- -- -- -- -- --
  [20]  
--
  [20]  

Raw TAF
KATL 190934Z 1910/2012 07005KT P6SM FEW015 SCT250
  FM191500 09006KT P6SM SCT030 SCT250
  FM191800 10007KT P6SM VCSH BKN040
  TEMPO 1921/2001 VRB10G20KT 4SM TSRA BKN035CB
  FM200200 10007KT P6SM SCT060 SCT150
  FM200700 09007KT P6SM OVC015


Raw METAR
KATL 190852Z 15004KT 10SM FEW014 FEW150 SCT200 SCT250 24/21 A2995 RMK AO2 SLP128 T02390211 55001
KATL 190752Z 00000KT 10SM FEW200 SCT250 24/21 A2993 RMK AO2 SLP124 T02390211
KATL 190652Z 00000KT 10SM FEW055 SCT200 BKN250 24/21 A2994 RMK AO2 SLP126 T02390211

METAR Board
Radar Display
Forecast Discussion

FOR SITUATIONAL AWARENESS. NOT TO BE USED FOR FLIGHT PLANNING PURPOSES.